createdAt,value
2023-09-15T00:01:28.843Z,91.20
2023-09-15T00:04:00.254Z,91.33
2023-09-15T00:06:29.881Z,91.41
2023-09-15T00:09:00.125Z,91.30
2023-09-15T00:11:41.685Z,91.35
2023-09-15T00:14:12.526Z,91.32
2023-09-15T00:16:43.284Z,91.34
2023-09-15T00:19:17.889Z,91.05
2023-09-15T00:21:49.820Z,91.30
2023-09-15T00:24:19.365Z,91.37
2023-09-15T00:26:49.749Z,91.15
2023-09-15T00:29:19.351Z,91.21
2023-09-15T00:31:48.893Z,91.01
2023-09-15T00:34:19.981Z,91.06
2023-09-15T00:36:50.527Z,90.84
2023-09-15T00:39:20.003Z,91.27
2023-09-15T00:41:49.551Z,90.98
2023-09-15T00:47:18.923Z,90.87
2023-09-15T00:49:48.927Z,91.00
2023-09-15T00:52:19.072Z,91.17
2023-09-15T00:54:48.635Z,91.36
2023-09-15T00:57:18.592Z,91.55
2023-09-15T00:59:48.061Z,91.64
2023-09-15T01:02:19.015Z,91.91
2023-09-15T01:04:48.778Z,92.34
2023-09-15T01:07:18.388Z,92.10
2023-09-15T01:09:48.126Z,92.34
2023-09-15T01:12:17.520Z,92.66
2023-09-15T01:14:47.238Z,93.48
2023-09-15T01:17:26.185Z,94.19
2023-09-15T01:20:09.424Z,93.72
2023-09-15T01:23:23.864Z,93.15
2023-09-15T01:26:19.914Z,87.63
2023-09-15T01:29:16.971Z,83.30
2023-09-15T01:31:50.388Z,80.22
2023-09-15T01:34:20.229Z,79.60
2023-09-15T01:36:49.716Z,78.31
2023-09-15T01:39:19.239Z,77.64
2023-09-15T01:41:48.813Z,81.26
2023-09-15T01:44:18.183Z,82.87
2023-09-15T01:46:49.385Z,83.83
2023-09-15T01:49:20.405Z,84.79
2023-09-15T01:51:50.575Z,85.72
2023-09-15T01:54:20.897Z,86.23
2023-09-15T01:56:50.654Z,86.60
2023-09-15T01:59:20.143Z,86.43
2023-09-15T02:01:50.962Z,82.94
2023-09-15T02:04:20.788Z,79.45
2023-09-15T02:06:50.557Z,77.09
2023-09-15T02:09:22.118Z,75.91
2023-09-15T02:11:51.534Z,80.01
2023-09-15T02:14:20.971Z,81.75
2023-09-15T02:16:53.156Z,83.50
2023-09-15T02:19:22.625Z,85.83
2023-09-15T02:21:52.137Z,87.56
2023-09-15T02:24:21.600Z,87.74
2023-09-15T02:26:51.049Z,88.05
2023-09-15T02:29:20.530Z,88.62
2023-09-15T02:31:52.590Z,88.49
2023-09-15T02:34:22.265Z,88.44
2023-09-15T02:36:51.783Z,88.43
2023-09-15T02:39:21.354Z,88.43
2023-09-15T02:41:50.803Z,88.59
2023-09-15T02:44:20.739Z,88.62
2023-09-15T02:46:51.734Z,88.70
2023-09-15T02:49:21.355Z,89.44
2023-09-15T02:51:50.845Z,89.63
2023-09-15T02:54:20.251Z,89.65
2023-09-15T02:56:49.644Z,89.85
2023-09-15T02:59:19.092Z,90.09
2023-09-15T03:01:48.850Z,90.08
2023-09-15T03:04:20.639Z,90.33
2023-09-15T03:06:51.189Z,90.75
2023-09-15T03:09:20.579Z,91.15
2023-09-15T03:11:50.030Z,91.20
2023-09-15T03:14:19.876Z,91.25
2023-09-15T03:16:49.584Z,92.15
2023-09-15T03:19:20.796Z,92.80
2023-09-15T03:21:50.390Z,93.28
2023-09-15T03:24:20.513Z,93.88
2023-09-15T03:26:50.093Z,95.18
2023-09-15T03:29:19.509Z,95.78
2023-09-15T03:31:49.127Z,96.05
2023-09-15T03:34:20.236Z,96.05
2023-09-15T03:36:49.764Z,97.35
2023-09-15T03:39:19.405Z,98.07
2023-09-15T03:41:49.647Z,98.13
2023-09-15T03:44:19.053Z,97.42
2023-09-15T03:48:17.800Z,97.37
2023-09-15T03:50:48.687Z,98.25
2023-09-15T03:53:18.486Z,98.45
2023-09-15T03:55:48.761Z,97.84
2023-09-15T03:58:18.966Z,97.66
2023-09-15T04:00:48.597Z,98.19
2023-09-15T04:03:22.371Z,98.98
2023-09-15T04:05:52.325Z,98.89
2023-09-15T04:08:21.757Z,98.86
2023-09-15T04:10:51.085Z,98.64
2023-09-15T04:13:20.531Z,98.83
2023-09-15T04:15:51.638Z,98.68
2023-09-15T04:18:22.492Z,99.38
2023-09-15T04:20:53.009Z,98.82
2023-09-15T04:23:22.474Z,98.55
2023-09-15T04:25:51.941Z,99.34
2023-09-15T04:28:21.495Z,98.81
2023-09-15T04:30:51.571Z,99.13
2023-09-15T04:33:22.419Z,99.04
2023-09-15T04:35:51.860Z,98.90
2023-09-15T04:38:21.823Z,98.54
2023-09-15T04:40:52.473Z,98.88
2023-09-15T04:43:22.906Z,98.79
2023-09-15T04:45:52.346Z,98.41
2023-09-15T04:48:23.130Z,97.96
2023-09-15T04:50:52.568Z,97.55
2023-09-15T04:53:22.106Z,97.52
2023-09-15T04:55:51.692Z,97.29
2023-09-15T04:58:21.094Z,97.54
2023-09-15T05:00:50.835Z,97.21
2023-09-15T05:03:21.803Z,96.76
2023-09-15T05:05:52.499Z,96.31
2023-09-15T05:08:21.984Z,95.90
2023-09-15T05:10:51.637Z,95.65
2023-09-15T05:13:21.108Z,94.96
2023-09-15T05:15:50.544Z,94.45
2023-09-15T05:18:21.378Z,93.94
2023-09-15T05:20:50.973Z,93.32
2023-09-15T05:23:20.464Z,92.69
2023-09-15T05:25:52.382Z,91.71
2023-09-15T05:28:21.838Z,91.07
2023-09-15T05:30:51.693Z,91.32
2023-09-15T05:33:22.671Z,90.82
2023-09-15T05:35:52.396Z,90.09
2023-09-15T05:38:21.840Z,89.60
2023-09-15T05:40:51.596Z,89.14
2023-09-15T05:43:22.222Z,88.68
2023-09-15T05:45:51.728Z,87.99
2023-09-15T05:48:24.633Z,87.04
2023-09-15T05:50:54.714Z,85.99
2023-09-15T05:53:24.264Z,85.42
2023-09-15T05:55:55.278Z,85.23
2023-09-15T05:58:24.882Z,84.75
2023-09-15T06:00:57.088Z,84.32
2023-09-15T06:03:27.892Z,83.63
2023-09-15T06:05:57.273Z,82.62
2023-09-15T06:08:27.824Z,79.03
2023-09-15T06:10:58.503Z,76.58
2023-09-15T06:13:28.106Z,75.22
2023-09-15T06:15:58.918Z,73.69
2023-09-15T06:18:29.831Z,72.90
2023-09-15T06:20:59.135Z,72.15
2023-09-15T06:23:29.976Z,71.53
2023-09-15T06:25:59.332Z,70.52
2023-09-15T06:28:28.761Z,69.76
2023-09-15T06:30:58.192Z,68.88
2023-09-15T06:33:29.155Z,68.09
2023-09-15T06:35:58.703Z,67.81
2023-09-15T06:38:28.416Z,66.50
2023-09-15T06:40:57.833Z,65.86
2023-09-15T06:43:27.408Z,65.92
2023-09-15T06:48:17.726Z,64.97
2023-09-15T06:50:47.703Z,64.46
2023-09-15T06:53:17.156Z,63.98
2023-09-15T06:55:46.588Z,63.58
2023-09-15T06:58:16.149Z,63.22
2023-09-15T07:00:46.443Z,63.18
2023-09-15T07:03:17.466Z,63.16
2023-09-15T07:05:47.291Z,62.23
2023-09-15T07:08:16.852Z,59.78
2023-09-15T07:10:46.384Z,61.10
2023-09-15T07:13:16.145Z,61.47
2023-09-15T07:15:48.649Z,57.71
2023-09-15T07:18:19.660Z,60.37
2023-09-15T07:20:49.297Z,60.00
2023-09-15T07:23:18.916Z,58.66
2023-09-15T07:25:49.041Z,56.47
2023-09-15T07:28:18.782Z,56.55
2023-09-15T07:30:48.487Z,58.95
2023-09-15T07:33:19.521Z,58.96
2023-09-15T07:35:49.033Z,58.04
2023-09-15T07:38:18.581Z,56.99
2023-09-15T07:40:48.129Z,56.79
2023-09-15T07:43:17.726Z,56.19
2023-09-15T07:45:47.391Z,54.18
2023-09-15T07:48:18.640Z,54.79
2023-09-15T07:50:48.143Z,55.05
2023-09-15T07:53:17.895Z,51.31
2023-09-15T07:55:47.513Z,53.16
2023-09-15T07:58:17.130Z,53.61
2023-09-15T08:00:47.720Z,49.09
2023-09-15T08:03:18.647Z,52.84
2023-09-15T08:05:48.134Z,53.25
2023-09-15T08:08:17.629Z,53.16
2023-09-15T08:10:47.868Z,53.25
2023-09-15T08:13:17.295Z,50.41
2023-09-15T08:15:47.044Z,52.07
2023-09-15T08:18:16.668Z,52.05
2023-09-15T08:20:47.623Z,49.52
2023-09-15T08:23:17.124Z,51.58
2023-09-15T08:25:47.477Z,52.30
2023-09-15T08:28:17.129Z,51.14
2023-09-15T08:30:48.055Z,49.81
2023-09-15T08:33:17.561Z,50.88
2023-09-15T08:35:48.357Z,51.01
2023-09-15T08:38:17.911Z,52.17
2023-09-15T08:40:56.182Z,51.88
2023-09-15T08:43:26.021Z,49.40
2023-09-15T08:45:56.669Z,50.52
2023-09-15T08:48:32.483Z,50.40
2023-09-15T08:51:05.879Z,49.38
2023-09-15T08:53:36.053Z,49.98
2023-09-15T08:56:05.581Z,49.23
2023-09-15T08:58:35.576Z,48.10
2023-09-15T09:01:08.989Z,48.56
2023-09-15T09:03:40.343Z,48.10
2023-09-15T09:06:13.893Z,47.81
2023-09-15T09:08:48.143Z,45.66
2023-09-15T09:11:18.585Z,48.17
2023-09-15T09:13:54.749Z,48.25
2023-09-15T09:16:25.122Z,46.64
2023-09-15T09:18:58.776Z,49.69
2023-09-15T09:21:31.662Z,49.88
2023-09-15T09:24:01.675Z,49.82
2023-09-15T09:26:31.412Z,49.58
2023-09-15T09:29:01.024Z,49.78
2023-09-15T09:31:32.237Z,49.57
2023-09-15T09:34:02.075Z,47.68
2023-09-15T09:36:33.344Z,46.33
2023-09-15T09:39:03.028Z,45.26
2023-09-15T09:41:32.801Z,47.81
2023-09-15T09:44:06.529Z,47.24
2023-09-15T09:48:21.970Z,46.28
2023-09-15T09:50:52.366Z,44.25
2023-09-15T09:53:30.794Z,44.14
2023-09-15T09:56:00.455Z,45.58
2023-09-15T09:58:30.235Z,45.06
2023-09-15T10:00:59.763Z,45.30
2023-09-15T10:03:30.663Z,44.13
2023-09-15T10:06:00.562Z,44.00
2023-09-15T10:08:31.406Z,45.39
2023-09-15T10:11:01.660Z,43.61
2023-09-15T10:13:32.868Z,43.38
2023-09-15T10:16:02.456Z,43.68
2023-09-15T10:18:33.876Z,43.83
2023-09-15T10:21:04.022Z,44.58
2023-09-15T10:23:34.095Z,44.26
2023-09-15T10:26:06.528Z,44.92
2023-09-15T10:28:56.235Z,44.57
2023-09-15T10:31:25.926Z,43.97
2023-09-15T10:33:56.849Z,42.69
2023-09-15T10:36:26.349Z,43.81
2023-09-15T10:38:56.005Z,44.12
2023-09-15T10:41:32.785Z,43.65
2023-09-15T10:44:02.426Z,42.39
2023-09-15T10:46:39.881Z,42.01
2023-09-15T10:49:23.799Z,43.33
2023-09-15T10:51:58.161Z,42.96
2023-09-15T10:54:29.333Z,42.23
2023-09-15T10:56:59.455Z,43.34
2023-09-15T10:59:29.550Z,42.30
2023-09-15T11:02:00.323Z,42.34
2023-09-15T11:04:32.515Z,43.65
2023-09-15T11:07:04.826Z,42.44
2023-09-15T11:09:34.439Z,43.63
2023-09-15T11:12:05.711Z,43.66
2023-09-15T11:14:35.283Z,41.88
2023-09-15T11:17:05.319Z,41.30
2023-09-15T11:19:38.658Z,42.01
2023-09-15T11:22:08.685Z,39.91
2023-09-15T11:24:38.288Z,42.93
2023-09-15T11:27:07.980Z,42.74
2023-09-15T11:29:37.554Z,42.77
2023-09-15T11:32:09.524Z,40.73
2023-09-15T11:34:40.479Z,40.26
2023-09-15T11:37:12.348Z,40.42
2023-09-15T11:39:41.972Z,40.39
2023-09-15T11:42:14.554Z,41.50
2023-09-15T11:44:44.914Z,41.03
2023-09-15T11:47:15.079Z,41.29
2023-09-15T11:49:47.107Z,40.96
2023-09-15T11:52:16.686Z,40.48
2023-09-15T11:54:47.521Z,40.62
2023-09-15T11:57:17.104Z,40.82
2023-09-15T11:59:46.944Z,40.60
2023-09-15T12:02:21.801Z,39.37
2023-09-15T12:04:52.789Z,40.28
2023-09-15T12:07:25.781Z,40.89
2023-09-15T12:09:56.354Z,39.60
2023-09-15T12:12:26.053Z,40.89
2023-09-15T12:15:02.753Z,40.87
2023-09-15T12:17:32.478Z,40.93
2023-09-15T12:20:06.111Z,40.48
2023-09-15T12:22:36.774Z,40.43
2023-09-15T12:25:07.306Z,39.52
2023-09-15T12:27:37.037Z,39.84
2023-09-15T12:30:08.169Z,39.56
2023-09-15T12:32:39.018Z,39.22
2023-09-15T12:35:14.654Z,40.35
2023-09-15T12:37:46.533Z,41.28
2023-09-15T12:40:17.133Z,41.72
2023-09-15T12:42:47.440Z,41.93
2023-09-15T12:48:17.583Z,41.69
2023-09-15T12:50:47.143Z,41.76
2023-09-15T12:53:16.751Z,42.15
2023-09-15T12:55:48.229Z,42.67
2023-09-15T12:58:19.857Z,43.19
2023-09-15T13:00:49.611Z,43.44
2023-09-15T13:03:23.089Z,43.45
2023-09-15T13:05:53.694Z,43.19
2023-09-15T13:08:23.385Z,43.33
2023-09-15T13:10:52.910Z,44.38
2023-09-15T13:13:22.795Z,44.77
2023-09-15T13:15:52.301Z,44.51
2023-09-15T13:18:25.446Z,44.75
2023-09-15T13:20:54.916Z,45.06
2023-09-15T13:23:24.326Z,45.18
2023-09-15T13:25:53.653Z,45.13
2023-09-15T13:28:23.081Z,44.99
2023-09-15T13:30:52.591Z,45.11
2023-09-15T13:33:23.622Z,45.63
2023-09-15T13:35:53.165Z,45.46
2023-09-15T13:38:23.053Z,45.41
2023-09-15T13:40:52.678Z,45.13
2023-09-15T13:43:22.779Z,44.76
2023-09-15T13:45:53.349Z,44.97
2023-09-15T13:48:24.534Z,45.04
2023-09-15T13:50:56.249Z,45.57
2023-09-15T13:53:25.707Z,45.45
2023-09-15T13:55:55.448Z,45.99
2023-09-15T13:58:25.018Z,46.14
2023-09-15T14:01:02.628Z,46.35
2023-09-15T14:03:33.608Z,46.51
2023-09-15T14:06:03.104Z,46.57
2023-09-15T14:08:32.444Z,46.22
2023-09-15T14:11:03.778Z,46.20
2023-09-15T14:13:33.233Z,46.17
2023-09-15T14:16:03.466Z,46.23
2023-09-15T14:18:34.688Z,46.03
2023-09-15T14:21:04.372Z,46.25
2023-09-15T14:23:33.858Z,46.60
2023-09-15T14:26:04.124Z,46.69
2023-09-15T14:28:33.506Z,46.63
2023-09-15T14:31:05.438Z,47.02
2023-09-15T14:33:36.493Z,47.35
2023-09-15T14:36:06.138Z,47.28
2023-09-15T14:38:35.861Z,47.45
2023-09-15T14:41:05.387Z,47.43
2023-09-15T14:43:34.770Z,47.68
2023-09-15T14:46:04.199Z,47.93
2023-09-15T14:48:35.185Z,48.13
2023-09-15T14:51:04.565Z,48.11
2023-09-15T14:53:38.096Z,48.37
2023-09-15T14:56:07.440Z,48.70
2023-09-15T14:58:36.866Z,48.71
2023-09-15T15:01:06.279Z,48.64
2023-09-15T15:03:37.251Z,48.63
2023-09-15T15:06:07.177Z,48.90
2023-09-15T15:08:36.595Z,48.97
2023-09-15T15:11:07.981Z,49.01
2023-09-15T15:13:37.589Z,48.95
2023-09-15T15:16:09.374Z,49.42
2023-09-15T15:18:40.467Z,49.66
2023-09-15T15:21:10.130Z,49.67
2023-09-15T15:23:39.575Z,49.59
2023-09-15T15:26:10.315Z,50.09
2023-09-15T15:28:39.701Z,50.26
2023-09-15T15:31:14.141Z,50.47
2023-09-15T15:33:45.624Z,50.20
2023-09-15T15:36:15.188Z,50.14
2023-09-15T15:38:45.161Z,50.17
2023-09-15T15:41:14.977Z,50.38
2023-09-15T15:43:45.515Z,50.62
2023-09-15T15:48:17.518Z,50.93
2023-09-15T15:50:48.264Z,52.18
2023-09-15T15:53:17.756Z,53.51
2023-09-15T15:55:47.648Z,53.68
2023-09-15T15:58:17.255Z,55.49
2023-09-15T16:03:18.347Z,55.73
2023-09-15T16:05:48.109Z,56.14
2023-09-15T16:08:17.701Z,55.94
2023-09-15T16:10:47.184Z,56.36
2023-09-15T16:13:16.748Z,56.95
2023-09-15T16:15:48.474Z,56.01
2023-09-15T16:18:30.289Z,57.14
2023-09-15T16:21:00.814Z,57.16
2023-09-15T16:23:30.595Z,58.28
2023-09-15T16:26:00.970Z,57.96
2023-09-15T16:28:30.655Z,58.92
2023-09-15T16:31:00.309Z,59.58
2023-09-15T16:33:31.373Z,59.64
2023-09-15T16:36:05.093Z,60.70
2023-09-15T16:38:34.847Z,60.47
2023-09-15T16:41:04.762Z,59.97
2023-09-15T16:43:36.761Z,60.31
2023-09-15T16:46:06.151Z,60.66
2023-09-15T16:48:37.094Z,60.89
2023-09-15T16:51:09.088Z,61.16
2023-09-15T16:53:38.117Z,63.76
2023-09-15T16:56:07.410Z,64.00
2023-09-15T16:58:36.826Z,63.77
2023-09-15T17:01:06.463Z,63.98
2023-09-15T17:03:37.896Z,65.12
2023-09-15T17:06:08.166Z,65.93
2023-09-15T17:08:37.461Z,66.52
2023-09-15T17:11:08.396Z,67.80
2023-09-15T17:13:37.673Z,67.20
2023-09-15T17:16:07.050Z,68.27
2023-09-15T17:18:37.867Z,68.10
2023-09-15T17:21:07.455Z,68.34
2023-09-15T17:23:36.764Z,69.88
2023-09-15T17:26:06.075Z,70.21
2023-09-15T17:28:35.487Z,70.36
2023-09-15T17:31:04.952Z,69.97
2023-09-15T17:33:34.551Z,70.68
2023-09-15T17:36:05.817Z,69.64
2023-09-15T17:38:35.330Z,70.16
2023-09-15T17:41:08.230Z,70.40
2023-09-15T17:43:37.753Z,71.33
2023-09-15T17:46:07.345Z,72.23
2023-09-15T17:48:37.081Z,72.51
2023-09-15T17:51:09.623Z,73.09
2023-09-15T17:53:39.167Z,73.68
2023-09-15T17:56:08.561Z,74.07
2023-09-15T17:58:38.043Z,74.00
2023-09-15T18:01:07.650Z,73.63
2023-09-15T18:03:38.316Z,75.82
2023-09-15T18:06:13.605Z,76.13
2023-09-15T18:08:43.052Z,76.70
2023-09-15T18:11:12.986Z,76.25
2023-09-15T18:13:42.574Z,76.12
2023-09-15T18:16:12.112Z,77.22
2023-09-15T18:18:41.703Z,77.19
2023-09-15T18:21:12.566Z,77.69
2023-09-15T18:23:42.091Z,76.74
2023-09-15T18:26:11.576Z,77.85
2023-09-15T18:28:41.794Z,77.50
2023-09-15T18:31:11.305Z,78.19
2023-09-15T18:33:42.599Z,78.57
2023-09-15T18:36:18.582Z,78.44
2023-09-15T18:38:48.382Z,77.23
2023-09-15T18:41:17.940Z,78.00
2023-09-15T18:43:48.280Z,77.14
2023-09-15T18:48:20.228Z,76.87
2023-09-15T18:50:49.686Z,77.90
2023-09-15T18:53:19.994Z,76.52
2023-09-15T18:55:49.429Z,76.80
2023-09-15T18:58:19.019Z,76.71
2023-09-15T19:00:48.574Z,76.45
2023-09-15T19:03:19.871Z,76.51
2023-09-15T19:05:49.266Z,77.57
2023-09-15T19:08:19.909Z,77.95
2023-09-15T19:10:49.510Z,77.52
2023-09-15T19:13:32.537Z,77.62
2023-09-15T19:18:43.215Z,78.48
2023-09-15T19:21:12.732Z,79.05
2023-09-15T19:23:42.253Z,77.91
2023-09-15T19:26:11.786Z,77.32
2023-09-15T19:28:41.424Z,77.95
2023-09-15T19:31:11.047Z,78.14
2023-09-15T19:33:42.032Z,78.98
2023-09-15T19:36:12.184Z,78.47
2023-09-15T19:38:42.338Z,78.97
2023-09-15T19:41:11.878Z,79.07
2023-09-15T19:43:41.337Z,78.81
2023-09-15T19:46:14.031Z,78.57
2023-09-15T19:48:45.092Z,78.98
2023-09-15T19:51:14.688Z,79.32
2023-09-15T19:53:44.926Z,79.73
2023-09-15T19:56:14.422Z,80.20
2023-09-15T19:58:43.883Z,80.76
2023-09-15T20:01:13.311Z,81.59
2023-09-15T20:03:44.311Z,80.98
2023-09-15T20:06:14.104Z,81.29
2023-09-15T20:08:43.739Z,81.81
2023-09-15T20:11:13.174Z,80.97
2023-09-15T20:13:42.681Z,80.87
2023-09-15T20:16:19.565Z,81.78
2023-09-15T20:18:50.897Z,81.47
2023-09-15T20:21:20.496Z,82.14
2023-09-15T20:23:51.162Z,81.52
2023-09-15T20:26:20.659Z,81.71
2023-09-15T20:28:50.289Z,81.28
2023-09-15T20:31:20.344Z,82.12
2023-09-15T20:33:51.369Z,83.31
2023-09-15T20:36:21.716Z,82.42
2023-09-15T20:38:51.081Z,82.95
2023-09-15T20:41:22.537Z,82.88
2023-09-15T20:43:57.416Z,81.88
2023-09-15T20:46:29.745Z,81.57
2023-09-15T20:49:00.783Z,82.84
2023-09-15T20:51:30.618Z,82.65
2023-09-15T20:54:00.069Z,81.92
2023-09-15T20:56:29.434Z,81.81
2023-09-15T20:58:59.324Z,82.13
2023-09-15T21:01:28.884Z,82.05
2023-09-15T21:04:00.832Z,82.53
2023-09-15T21:06:30.414Z,82.15
2023-09-15T21:09:01.151Z,82.58
2023-09-15T21:11:30.624Z,83.22
2023-09-15T21:14:00.243Z,84.03
2023-09-15T21:16:29.838Z,84.09
2023-09-15T21:19:02.136Z,84.20
2023-09-15T21:21:31.568Z,84.82
2023-09-15T21:24:01.098Z,84.74
2023-09-15T21:26:30.703Z,84.84
2023-09-15T21:29:00.427Z,84.75
2023-09-15T21:31:32.744Z,84.66
2023-09-15T21:34:04.509Z,85.35
2023-09-15T21:36:34.016Z,85.52
2023-09-15T21:39:03.622Z,85.70
2023-09-15T21:41:33.481Z,85.94
2023-09-15T21:44:03.007Z,85.93
2023-09-15T21:48:16.995Z,85.56
2023-09-15T21:50:46.458Z,85.48
2023-09-15T21:53:16.494Z,85.91
2023-09-15T21:55:45.921Z,86.60
2023-09-15T21:58:15.524Z,86.79
2023-09-15T22:03:18.919Z,86.94
2023-09-15T22:05:48.461Z,86.70
2023-09-15T22:08:18.124Z,86.34
2023-09-15T22:10:48.744Z,86.48
2023-09-15T22:13:20.163Z,86.70
2023-09-15T22:15:49.849Z,87.04
2023-09-15T22:18:20.827Z,87.55
2023-09-15T22:20:50.773Z,88.54
2023-09-15T22:23:20.224Z,90.80
2023-09-15T22:25:50.597Z,93.24
2023-09-15T22:28:20.036Z,92.82
2023-09-15T22:30:49.615Z,92.43
2023-09-15T22:33:20.562Z,91.15
2023-09-15T22:35:49.957Z,90.75
2023-09-15T22:38:19.334Z,90.30
2023-09-15T22:40:48.940Z,90.31
2023-09-15T22:43:18.559Z,90.11
2023-09-15T22:45:48.913Z,91.06
2023-09-15T22:48:20.031Z,91.21
2023-09-15T22:50:49.491Z,91.96
2023-09-15T22:53:19.881Z,91.68
2023-09-15T22:55:49.887Z,91.20
2023-09-15T22:58:19.290Z,93.42
2023-09-15T23:00:48.842Z,93.80
2023-09-15T23:03:19.815Z,94.67
2023-09-15T23:05:49.340Z,94.32
2023-09-15T23:08:18.941Z,93.40
2023-09-15T23:10:48.408Z,93.34
2023-09-15T23:13:17.951Z,93.26
2023-09-15T23:15:47.647Z,94.65
2023-09-15T23:18:17.225Z,94.18
2023-09-15T23:20:48.052Z,95.26
2023-09-15T23:23:17.710Z,96.58
2023-09-15T23:25:48.531Z,96.55
2023-09-15T23:28:17.974Z,97.29
2023-09-15T23:30:48.509Z,97.07
2023-09-15T23:33:18.136Z,98.30
2023-09-15T23:35:49.193Z,97.56
2023-09-15T23:38:18.882Z,98.15
2023-09-15T23:40:48.268Z,97.44
2023-09-15T23:43:17.781Z,96.48
2023-09-15T23:45:47.309Z,95.49
2023-09-15T23:48:16.860Z,95.16
2023-09-15T23:50:47.716Z,95.13
2023-09-15T23:53:17.404Z,95.78
2023-09-15T23:55:46.971Z,96.02
2023-09-15T23:58:16.556Z,96.07
